createdAt,value
2023-02-24T00:01:51.324Z,100778.13
2023-02-24T00:04:20.479Z,100775.50
2023-02-24T00:06:47.432Z,100781.91
2023-02-24T00:09:18.047Z,100769.75
2023-02-24T00:11:46.903Z,100767.03
2023-02-24T00:14:19.210Z,100761.97
2023-02-24T00:16:46.779Z,100762.56
2023-02-24T00:19:16.698Z,100756.69
2023-02-24T00:21:44.037Z,100750.25
2023-02-24T00:24:11.162Z,100758.06
2023-02-24T00:26:38.368Z,100751.19
2023-02-24T00:29:08.369Z,100752.53
2023-02-24T00:31:35.061Z,100744.53
2023-02-24T00:34:02.266Z,100738.00
2023-02-24T00:36:30.206Z,100737.91
2023-02-24T00:38:58.903Z,100739.72
2023-02-24T00:41:31.616Z,100731.50
2023-02-24T00:44:06.084Z,100726.94
2023-02-24T00:46:38.530Z,100727.19
2023-02-24T00:49:07.668Z,100720.69
2023-02-24T00:51:42.046Z,100713.22
2023-02-24T00:54:10.237Z,100705.06
2023-02-24T00:56:37.047Z,100709.47
2023-02-24T00:59:03.864Z,100700.38
2023-02-24T01:01:32.856Z,100687.84
2023-02-24T01:04:05.757Z,100692.31
2023-02-24T01:06:34.099Z,100691.25
2023-02-24T01:09:00.990Z,100687.13
2023-02-24T01:11:50.946Z,100680.00
2023-02-24T01:14:19.828Z,100678.38
2023-02-24T01:16:50.486Z,100667.44
2023-02-24T01:19:21.849Z,100668.19
2023-02-24T01:21:53.390Z,100667.03
2023-02-24T01:24:19.857Z,100662.44
2023-02-24T01:26:46.286Z,100653.50
2023-02-24T01:29:12.848Z,100658.06
2023-02-24T01:31:42.776Z,100652.44
2023-02-24T01:34:13.207Z,100642.09
2023-02-24T01:36:41.177Z,100635.44
2023-02-24T01:39:11.049Z,100636.63
2023-02-24T01:41:49.948Z,100634.66
2023-02-24T01:44:22.437Z,100628.41
2023-02-24T01:46:51.482Z,100615.78
2023-02-24T01:49:20.327Z,100626.88
2023-02-24T01:51:58.187Z,100614.53
2023-02-24T01:54:27.119Z,100618.13
2023-02-24T01:56:54.823Z,100608.03
2023-02-24T01:59:23.677Z,100600.13
2023-02-24T02:01:53.470Z,100595.03
2023-02-24T02:04:36.665Z,100594.22
2023-02-24T02:07:03.312Z,100586.66
2023-02-24T02:09:29.846Z,100581.69
2023-02-24T02:11:56.371Z,100573.69
2023-02-24T02:14:26.991Z,100572.53
2023-02-24T02:17:12.477Z,100574.00
2023-02-24T02:20:07.600Z,100572.25
2023-02-24T02:23:15.612Z,100562.78
2023-02-24T02:26:24.095Z,100562.16
2023-02-24T02:29:05.560Z,100553.88
2023-02-24T02:32:07.971Z,100544.66
2023-02-24T02:34:53.805Z,100547.69
2023-02-24T02:37:56.312Z,100545.78
2023-02-24T02:40:41.545Z,100528.81
2023-02-24T02:43:19.524Z,100522.31
2023-02-24T02:45:52.618Z,100528.56
2023-02-24T02:48:34.051Z,100517.69
2023-02-24T02:51:26.427Z,100517.50
2023-02-24T02:54:07.958Z,100507.31
2023-02-24T02:56:40.904Z,100500.38
2023-02-24T02:59:08.559Z,100497.41
2023-02-24T03:01:37.559Z,100493.63
2023-02-24T03:04:06.552Z,100476.88
2023-02-24T03:06:46.800Z,100480.34
2023-02-24T03:09:20.792Z,100479.44
2023-02-24T03:11:53.739Z,100466.81
2023-02-24T03:14:24.292Z,100458.44
2023-02-24T03:16:52.402Z,100452.25
2023-02-24T03:19:23.044Z,100455.84
2023-02-24T03:21:59.619Z,100445.50
2023-02-24T03:24:28.019Z,100440.25
2023-02-24T03:27:09.020Z,100432.00
2023-02-24T03:29:58.528Z,100429.28
2023-02-24T03:32:33.263Z,100419.19
2023-02-24T03:35:13.381Z,100409.56
2023-02-24T03:37:40.029Z,100417.38
2023-02-24T03:40:14.620Z,100414.13
2023-02-24T03:42:44.473Z,100407.75
2023-02-24T03:45:11.463Z,100390.59
2023-02-24T03:47:38.245Z,100389.06
2023-02-24T03:50:13.025Z,100375.81
2023-02-24T03:52:47.733Z,100379.91
2023-02-24T03:55:17.173Z,100368.84
2023-02-24T03:58:02.393Z,100363.88
2023-02-24T04:00:38.509Z,100362.63
2023-02-24T04:03:40.652Z,100354.63
2023-02-24T04:06:19.155Z,100348.16
2023-02-24T04:09:10.474Z,100351.91
2023-02-24T04:11:46.049Z,100334.72
2023-02-24T04:14:19.696Z,100328.47
2023-02-24T04:17:07.896Z,100317.91
2023-02-24T04:19:40.749Z,100311.09
2023-02-24T04:22:10.179Z,100306.34
2023-02-24T04:24:38.300Z,100302.06
2023-02-24T04:27:06.632Z,100298.78
2023-02-24T04:29:36.123Z,100283.97
2023-02-24T04:32:06.647Z,100288.22
2023-02-24T04:34:33.406Z,100272.75
2023-02-24T04:37:02.346Z,100267.88
2023-02-24T04:39:29.951Z,100257.28
2023-02-24T04:41:57.727Z,100252.44
2023-02-24T04:44:25.259Z,100244.31
2023-02-24T04:46:51.825Z,100237.66
2023-02-24T04:49:19.753Z,100229.03
2023-02-24T04:51:46.724Z,100230.13
2023-02-24T04:54:17.616Z,100216.53
2023-02-24T04:56:50.645Z,100216.72
2023-02-24T04:59:18.511Z,100212.16
2023-02-24T05:01:45.903Z,100204.97
2023-02-24T05:04:14.128Z,100211.16
2023-02-24T05:06:44.631Z,100204.28
2023-02-24T05:09:19.483Z,100198.88
2023-02-24T05:11:51.365Z,100189.78
2023-02-24T05:14:20.898Z,100194.84
2023-02-24T05:16:48.687Z,100190.13
2023-02-24T05:19:36.949Z,100174.81
2023-02-24T05:22:04.708Z,100170.56
2023-02-24T05:24:31.510Z,100163.34
2023-02-24T05:26:59.201Z,100153.78
2023-02-24T05:29:30.243Z,100145.81
2023-02-24T05:32:00.636Z,100137.38
2023-02-24T05:34:30.572Z,100130.25
2023-02-24T05:36:58.482Z,100136.69
2023-02-24T05:39:27.079Z,100120.22
2023-02-24T05:41:57.031Z,100117.38
2023-02-24T05:44:26.254Z,100110.53
2023-02-24T05:46:58.685Z,100095.75
2023-02-24T05:49:33.754Z,100092.25
2023-02-24T05:52:07.284Z,100082.94
2023-02-24T05:54:37.482Z,100080.47
2023-02-24T05:57:06.658Z,100076.84
2023-02-24T05:59:33.577Z,100066.94
2023-02-24T06:02:06.926Z,100071.81
2023-02-24T06:04:40.241Z,100064.06
2023-02-24T06:07:24.961Z,100056.50
2023-02-24T06:09:53.943Z,100046.91
2023-02-24T06:12:23.255Z,100042.34
2023-02-24T06:14:49.818Z,100047.78
2023-02-24T06:17:17.251Z,100041.88
2023-02-24T06:19:44.779Z,100047.41
2023-02-24T06:22:15.166Z,100037.19
2023-02-24T06:24:44.960Z,100033.19
2023-02-24T06:27:17.605Z,100019.19
2023-02-24T06:29:51.698Z,100015.38
2023-02-24T06:32:21.056Z,100010.59
2023-02-24T06:34:47.654Z,100007.03
2023-02-24T06:37:15.290Z,100007.78
2023-02-24T06:39:42.300Z,99991.09
2023-02-24T06:42:10.486Z,99993.69
2023-02-24T06:44:38.454Z,99993.72
2023-02-24T06:47:07.074Z,99979.81
2023-02-24T06:49:34.016Z,99979.34
2023-02-24T06:52:00.660Z,99975.94
2023-02-24T06:54:30.986Z,99969.25
2023-02-24T06:57:00.592Z,99972.19
2023-02-24T06:59:29.884Z,99964.75
2023-02-24T07:01:58.055Z,99958.06
2023-02-24T07:04:28.136Z,99946.53
2023-02-24T07:06:57.545Z,99931.50
2023-02-24T07:09:27.070Z,99937.31
2023-02-24T07:11:56.049Z,99931.53
2023-02-24T07:14:24.620Z,99930.50
2023-02-24T07:16:54.375Z,99933.13
2023-02-24T07:19:23.653Z,99928.63
2023-02-24T07:21:52.570Z,99922.63
2023-02-24T07:24:33.184Z,99920.19
2023-02-24T07:27:02.386Z,99919.56
2023-02-24T07:29:30.906Z,99908.44
2023-02-24T07:32:03.577Z,99918.25
2023-02-24T07:34:31.243Z,99905.13
2023-02-24T07:36:58.029Z,99896.81
2023-02-24T07:39:25.654Z,99888.72
2023-02-24T07:41:55.233Z,99900.34
2023-02-24T07:44:26.217Z,99894.28
2023-02-24T07:46:52.687Z,99890.53
2023-02-24T07:49:23.381Z,99897.44
2023-02-24T07:51:52.864Z,99883.88
2023-02-24T07:54:21.241Z,99884.25
2023-02-24T07:56:56.698Z,99892.84
2023-02-24T07:59:28.808Z,99879.50
2023-02-24T08:01:56.212Z,99867.69
2023-02-24T08:04:26.793Z,99854.16
2023-02-24T08:06:56.378Z,99848.91
2023-02-24T08:09:48.518Z,99837.19
2023-02-24T08:12:21.468Z,99835.41
2023-02-24T08:14:51.226Z,99832.22
2023-02-24T08:17:20.044Z,99832.34
2023-02-24T08:19:48.359Z,99828.78
2023-02-24T08:22:25.343Z,99832.66
2023-02-24T08:25:05.954Z,99820.44
2023-02-24T08:27:38.987Z,99813.16
2023-02-24T08:30:07.810Z,99810.97
2023-02-24T08:32:37.200Z,99809.06
2023-02-24T08:35:14.520Z,99799.06
2023-02-24T08:37:55.336Z,99799.69
2023-02-24T08:40:33.798Z,99792.31
2023-02-24T08:43:32.712Z,99786.75
2023-02-24T08:46:34.636Z,99781.16
2023-02-24T08:49:01.341Z,99790.25
2023-02-24T08:51:35.080Z,99779.69
2023-02-24T08:54:15.493Z,99757.41
2023-02-24T08:56:56.085Z,99761.25
2023-02-24T08:59:37.783Z,99769.91
2023-02-24T09:02:18.835Z,99758.75
2023-02-24T09:04:47.615Z,99766.53
2023-02-24T09:07:16.401Z,99757.97
2023-02-24T09:09:43.709Z,99754.28
2023-02-24T09:12:21.901Z,99753.16
2023-02-24T09:14:49.917Z,99745.22
2023-02-24T09:17:20.686Z,99735.50
2023-02-24T09:19:52.134Z,99733.16
2023-02-24T09:22:33.410Z,99727.97
2023-02-24T09:25:24.166Z,99717.75
2023-02-24T09:28:07.852Z,99708.56
2023-02-24T09:30:51.237Z,99709.38
2023-02-24T09:33:22.489Z,99710.94
2023-02-24T09:36:10.985Z,99695.09
2023-02-24T09:39:01.983Z,99689.19
2023-02-24T09:41:58.846Z,99704.50
2023-02-24T09:44:28.961Z,99706.78
2023-02-24T09:47:14.886Z,99696.28
2023-02-24T09:49:56.381Z,99685.16
2023-02-24T09:52:39.735Z,99691.34
2023-02-24T09:55:25.106Z,99679.19
2023-02-24T09:58:18.151Z,99662.91
2023-02-24T10:00:53.669Z,99665.09
2023-02-24T10:03:43.076Z,99651.34
2023-02-24T10:06:21.492Z,99648.38
2023-02-24T10:08:52.544Z,99639.69
2023-02-24T10:11:32.861Z,99629.00
2023-02-24T10:14:06.010Z,99626.59
2023-02-24T10:16:41.636Z,99618.78
2023-02-24T10:19:18.565Z,99611.91
2023-02-24T10:21:49.930Z,99614.41
2023-02-24T10:24:29.353Z,99610.00
2023-02-24T10:27:08.730Z,99600.13
2023-02-24T10:29:44.404Z,99593.91
2023-02-24T10:32:33.960Z,99577.94
2023-02-24T10:35:03.668Z,99587.53
2023-02-24T10:37:30.297Z,99577.91
2023-02-24T10:40:09.879Z,99580.22
2023-02-24T10:42:44.482Z,99574.94
2023-02-24T10:45:18.549Z,99575.41
2023-02-24T10:47:56.646Z,99570.09
2023-02-24T10:50:24.065Z,99557.03
2023-02-24T10:53:11.319Z,99558.97
2023-02-24T10:55:44.213Z,99548.59
2023-02-24T10:58:28.187Z,99539.97
2023-02-24T11:01:20.842Z,99540.81
2023-02-24T11:04:01.719Z,99532.16
2023-02-24T11:06:32.844Z,99541.44
2023-02-24T11:09:19.911Z,99535.53
2023-02-24T11:12:06.170Z,99521.41
2023-02-24T11:15:09.648Z,99518.31
2023-02-24T11:17:37.443Z,99520.91
2023-02-24T11:20:12.882Z,99524.34
2023-02-24T11:22:41.824Z,99508.75
2023-02-24T11:25:33.597Z,99509.63
2023-02-24T11:28:00.106Z,99499.25
2023-02-24T11:30:43.424Z,99496.63
2023-02-24T11:33:17.726Z,99489.72
2023-02-24T11:35:54.857Z,99478.50
2023-02-24T11:38:37.786Z,99468.88
2023-02-24T11:41:05.334Z,99473.22
2023-02-24T11:43:34.858Z,99457.34
2023-02-24T11:46:10.302Z,99461.78
2023-02-24T11:48:40.238Z,99451.50
2023-02-24T11:51:39.407Z,99446.22
2023-02-24T11:54:13.750Z,99449.91
2023-02-24T11:56:47.022Z,99441.25
2023-02-24T11:59:22.758Z,99441.25
2023-02-24T12:01:57.323Z,99445.41
2023-02-24T12:04:29.323Z,99441.13
2023-02-24T12:07:07.297Z,99435.16
2023-02-24T12:09:43.087Z,99434.22
2023-02-24T12:12:20.833Z,99418.47
2023-02-24T12:14:54.588Z,99406.09
2023-02-24T12:17:30.805Z,99396.69
2023-02-24T12:20:05.833Z,99404.06
2023-02-24T12:22:54.358Z,99394.13
2023-02-24T12:25:25.782Z,99390.44
2023-02-24T12:28:15.846Z,99387.72
2023-02-24T12:31:01.307Z,99378.34
2023-02-24T12:33:43.858Z,99363.03
2023-02-24T12:36:48.188Z,99368.06
2023-02-24T12:39:39.063Z,99370.47
2023-02-24T12:42:31.638Z,99357.72
2023-02-24T12:45:31.121Z,99361.41
2023-02-24T12:48:49.210Z,99360.97
2023-02-24T12:51:28.813Z,99364.25
2023-02-24T12:54:19.182Z,99390.06
2023-02-24T12:56:54.737Z,99389.03
2023-02-24T12:59:25.999Z,99394.00
2023-02-24T13:02:06.442Z,99392.50
2023-02-24T13:05:04.360Z,99386.22
2023-02-24T13:07:42.910Z,99385.34
2023-02-24T13:10:38.986Z,99369.22
2023-02-24T13:13:08.225Z,99370.13
2023-02-24T13:15:35.137Z,99369.34
2023-02-24T13:18:01.862Z,99365.91
2023-02-24T13:20:36.483Z,99355.50
2023-02-24T13:23:16.916Z,99355.50
2023-02-24T13:25:51.141Z,99345.97
2023-02-24T13:28:33.138Z,99351.16
2023-02-24T13:31:02.699Z,99340.81
2023-02-24T13:33:32.796Z,99340.00
2023-02-24T13:36:21.712Z,99327.84
2023-02-24T13:38:49.446Z,99322.66
2023-02-24T13:41:28.226Z,99323.56
2023-02-24T13:44:02.239Z,99315.78
2023-02-24T13:46:34.630Z,99315.69
2023-02-24T13:49:21.900Z,99313.19
2023-02-24T13:51:59.226Z,99300.22
2023-02-24T13:54:45.146Z,99308.00
2023-02-24T13:57:30.114Z,99307.75
2023-02-24T14:00:22.037Z,99295.91
2023-02-24T14:02:48.949Z,99310.56
2023-02-24T14:05:34.311Z,99301.06
2023-02-24T14:08:01.368Z,99294.09
2023-02-24T14:10:30.505Z,99299.34
2023-02-24T14:13:34.355Z,99291.50
2023-02-24T14:16:05.885Z,99301.06
2023-02-24T14:18:32.416Z,99320.00
2023-02-24T14:20:58.979Z,99318.16
2023-02-24T14:23:32.008Z,99316.50
2023-02-24T14:25:59.954Z,99309.56
2023-02-24T14:28:35.502Z,99306.94
2023-02-24T14:31:10.115Z,99300.00
2023-02-24T14:33:38.181Z,99296.63
2023-02-24T14:36:17.404Z,99288.06
2023-02-24T14:38:44.835Z,99286.34
2023-02-24T14:41:21.003Z,99286.16
2023-02-24T14:43:47.575Z,99289.69
2023-02-24T14:46:14.087Z,99288.63
2023-02-24T14:48:40.580Z,99276.69
2023-02-24T14:51:31.126Z,99281.84
2023-02-24T14:54:02.138Z,99263.88
2023-02-24T14:56:31.264Z,99269.88
2023-02-24T14:59:20.460Z,99264.72
2023-02-24T15:01:48.906Z,99257.81
2023-02-24T15:04:32.644Z,99253.50
2023-02-24T15:07:01.651Z,99263.00
2023-02-24T15:09:34.704Z,99263.00
2023-02-24T15:12:12.971Z,99250.00
2023-02-24T15:14:39.778Z,99247.41
2023-02-24T15:17:16.995Z,99244.00
2023-02-24T15:19:46.874Z,99242.28
2023-02-24T15:22:29.591Z,99237.06
2023-02-24T15:25:37.184Z,99242.22
2023-02-24T15:28:25.846Z,99244.84
2023-02-24T15:31:17.961Z,99236.22
2023-02-24T15:33:47.490Z,99238.81
2023-02-24T15:36:23.320Z,99231.03
2023-02-24T15:39:23.163Z,99225.84
2023-02-24T15:41:51.706Z,99222.38
2023-02-24T15:44:36.820Z,99222.38
2023-02-24T15:47:22.471Z,99226.69
2023-02-24T15:49:49.144Z,99222.34
2023-02-24T15:52:19.912Z,99218.88
2023-02-24T15:54:46.356Z,99222.31
2023-02-24T15:57:16.469Z,99219.75
2023-02-24T15:59:43.326Z,99219.75
2023-02-24T16:02:20.852Z,99216.22
2023-02-24T16:04:48.622Z,99227.34
2023-02-24T16:07:24.821Z,99214.47
2023-02-24T16:09:53.260Z,99219.75
2023-02-24T16:12:22.846Z,99225.47
2023-02-24T16:15:02.761Z,99232.41
2023-02-24T16:17:39.527Z,99229.03
2023-02-24T16:20:10.885Z,99227.28
2023-02-24T16:22:37.487Z,99229.06
2023-02-24T16:25:05.048Z,99229.00
2023-02-24T16:27:31.606Z,99230.75
2023-02-24T16:29:58.473Z,99238.56
2023-02-24T16:32:27.100Z,99229.06
2023-02-24T16:34:53.925Z,99205.56
2023-02-24T16:37:23.232Z,99224.78
2023-02-24T16:39:50.218Z,99217.06
2023-02-24T16:42:17.551Z,99217.94
2023-02-24T16:44:44.454Z,99217.69
2023-02-24T16:47:23.041Z,99222.16
2023-02-24T16:49:50.323Z,99218.59
2023-02-24T16:52:20.707Z,99227.31
2023-02-24T16:54:48.304Z,99228.19
2023-02-24T16:57:15.309Z,99221.97
2023-02-24T16:59:41.830Z,99230.78
2023-02-24T17:02:19.022Z,99238.53
2023-02-24T17:04:45.500Z,99232.59
2023-02-24T17:07:12.031Z,99227.88
2023-02-24T17:09:38.560Z,99226.34
2023-02-24T17:12:05.235Z,99229.81
2023-02-24T17:14:32.763Z,99232.44
2023-02-24T17:17:02.130Z,99236.47
2023-02-24T17:19:28.732Z,99227.03
2023-02-24T17:21:55.326Z,99228.00
2023-02-24T17:24:21.896Z,99234.84
2023-02-24T17:26:48.331Z,99239.88
2023-02-24T17:29:14.927Z,99244.09
2023-02-24T17:31:42.460Z,99240.81
2023-02-24T17:34:09.448Z,99242.38
2023-02-24T17:36:35.943Z,99246.44
2023-02-24T17:39:02.413Z,99238.91
2023-02-24T17:41:29.003Z,99250.84
2023-02-24T17:43:55.604Z,99264.72
2023-02-24T17:46:22.576Z,99257.94
2023-02-24T17:48:49.247Z,99254.59
2023-02-24T17:51:17.925Z,99254.53
2023-02-24T17:53:44.646Z,99256.16
2023-02-24T17:56:11.963Z,99266.72
2023-02-24T17:58:38.809Z,99257.06
2023-02-24T18:01:06.653Z,99257.94
2023-02-24T18:03:34.655Z,99256.94
2023-02-24T18:06:07.452Z,99266.59
2023-02-24T18:08:34.701Z,99256.88
2023-02-24T18:11:01.985Z,99257.81
2023-02-24T18:13:29.367Z,99257.91
2023-02-24T18:15:56.047Z,99255.56
2023-02-24T18:18:23.480Z,99265.56
2023-02-24T18:20:50.075Z,99267.19
2023-02-24T18:23:16.616Z,99256.84
2023-02-24T18:25:43.376Z,99254.41
2023-02-24T18:28:09.877Z,99264.59
2023-02-24T18:30:39.612Z,99261.81
2023-02-24T18:33:08.876Z,99264.09
2023-02-24T18:35:41.725Z,99268.28
2023-02-24T18:38:10.399Z,99265.66
2023-02-24T18:40:37.787Z,99265.66
2023-02-24T18:43:08.091Z,99267.41
2023-02-24T18:45:34.611Z,99266.47
2023-02-24T18:48:05.063Z,99258.94
2023-02-24T18:50:32.831Z,99261.78
2023-02-24T18:52:59.706Z,99258.97
2023-02-24T18:55:30.682Z,99258.25
2023-02-24T19:00:50.799Z,99265.84
2023-02-24T19:03:18.163Z,99254.91
2023-02-24T19:05:50.496Z,99256.31
2023-02-24T19:08:17.536Z,99262.56
2023-02-24T19:13:27.827Z,99263.22
2023-02-24T19:16:06.976Z,99271.81
2023-02-24T19:18:56.463Z,99275.91
2023-02-24T19:21:31.999Z,99269.41
2023-02-24T19:24:08.704Z,99270.75
2023-02-24T19:26:40.035Z,99263.19
2023-02-24T19:29:07.262Z,99270.16
2023-02-24T19:31:34.364Z,99281.41
2023-02-24T19:34:03.811Z,99279.41
2023-02-24T19:36:31.828Z,99277.34
2023-02-24T19:38:58.615Z,99288.38
2023-02-24T19:41:26.262Z,99286.75
2023-02-24T19:43:53.774Z,99286.72
2023-02-24T19:46:21.224Z,99296.22
2023-02-24T19:48:49.567Z,99297.97
2023-02-24T19:51:21.150Z,99297.81
2023-02-24T19:53:48.210Z,99294.34
2023-02-24T19:56:14.744Z,99298.03
2023-02-24T19:58:41.197Z,99301.63
2023-02-24T20:01:14.374Z,99310.69
2023-02-24T20:03:42.470Z,99303.03
2023-02-24T20:06:26.519Z,99308.03
2023-02-24T20:08:53.498Z,99311.19
2023-02-24T20:11:21.288Z,99308.72
2023-02-24T20:13:48.102Z,99311.34
2023-02-24T20:16:17.286Z,99315.44
2023-02-24T20:18:44.713Z,99313.81
2023-02-24T20:21:12.184Z,99319.78
2023-02-24T20:23:39.844Z,99325.34
2023-02-24T20:26:07.054Z,99323.09
2023-02-24T20:28:33.569Z,99325.78
2023-02-24T20:31:06.821Z,99338.56
2023-02-24T20:33:52.198Z,99336.19
2023-02-24T20:36:21.524Z,99339.34
2023-02-24T20:38:48.643Z,99343.28
2023-02-24T20:41:15.991Z,99348.06
2023-02-24T20:43:42.465Z,99343.56
2023-02-24T20:46:16.512Z,99340.34
2023-02-24T20:48:43.331Z,99341.63
2023-02-24T20:51:12.291Z,99346.56
2023-02-24T20:53:54.733Z,99350.72
2023-02-24T20:56:22.714Z,99365.25
2023-02-24T20:58:50.737Z,99355.13
2023-02-24T21:01:17.613Z,99362.88
2023-02-24T21:03:44.218Z,99375.72
2023-02-24T21:06:11.996Z,99370.84
2023-02-24T21:08:39.251Z,99366.19
2023-02-24T21:11:10.877Z,99362.75
2023-02-24T21:13:42.649Z,99376.31
2023-02-24T21:16:10.905Z,99376.03
2023-02-24T21:18:38.715Z,99374.53
2023-02-24T21:21:06.415Z,99386.63
2023-02-24T21:23:33.295Z,99391.63
2023-02-24T21:26:03.076Z,99392.59
2023-02-24T21:28:30.071Z,99402.63
2023-02-24T21:30:56.961Z,99400.84
2023-02-24T21:33:23.448Z,99403.66
2023-02-24T21:36:00.230Z,99405.72
2023-02-24T21:38:26.885Z,99415.47
2023-02-24T21:40:53.471Z,99416.09
2023-02-24T21:43:21.761Z,99419.84
2023-02-24T21:45:48.544Z,99410.81
2023-02-24T21:48:15.475Z,99406.66
2023-02-24T21:50:42.568Z,99412.06
2023-02-24T21:53:09.073Z,99424.94
2023-02-24T21:55:38.592Z,99420.19
2023-02-24T21:58:05.101Z,99417.50
2023-02-24T22:00:32.896Z,99418.53
2023-02-24T22:02:59.442Z,99428.41
2023-02-24T22:05:26.430Z,99428.50
2023-02-24T22:07:52.997Z,99429.75
2023-02-24T22:10:21.961Z,99424.59
2023-02-24T22:12:48.801Z,99433.00
2023-02-24T22:15:15.500Z,99436.44
2023-02-24T22:17:42.521Z,99445.94
2023-02-24T22:20:11.892Z,99435.41
2023-02-24T22:22:40.515Z,99447.25
2023-02-24T22:25:08.054Z,99452.75
2023-02-24T22:27:34.585Z,99450.31
2023-02-24T22:30:01.215Z,99443.63
2023-02-24T22:32:28.651Z,99462.34
2023-02-24T22:34:55.710Z,99454.81
2023-02-24T22:37:22.300Z,99454.88
2023-02-24T22:39:48.855Z,99458.66
2023-02-24T22:42:15.337Z,99465.81
2023-02-24T22:48:22.663Z,99457.75
2023-02-24T22:50:50.077Z,99461.59
2023-02-24T22:53:16.779Z,99469.09
2023-02-24T22:55:47.557Z,99466.06
2023-02-24T22:58:14.602Z,99453.03
2023-02-24T23:00:42.572Z,99470.50
2023-02-24T23:03:09.143Z,99470.00
2023-02-24T23:05:35.748Z,99472.44
2023-02-24T23:08:03.424Z,99480.97
2023-02-24T23:10:29.936Z,99482.81
2023-02-24T23:12:57.031Z,99488.94
2023-02-24T23:15:23.474Z,99493.75
2023-02-24T23:17:49.957Z,99495.41
2023-02-24T23:20:16.920Z,99491.66
2023-02-24T23:22:44.066Z,99489.88
2023-02-24T23:25:55.159Z,99501.25
2023-02-24T23:28:24.528Z,99512.56
2023-02-24T23:30:52.920Z,99503.13
2023-02-24T23:33:20.729Z,99509.53
2023-02-24T23:35:47.346Z,99515.16
2023-02-24T23:38:14.968Z,99511.47
2023-02-24T23:40:50.183Z,99516.03
2023-02-24T23:43:19.538Z,99524.44
2023-02-24T23:45:46.663Z,99536.13
2023-02-24T23:48:14.568Z,99535.84
2023-02-24T23:50:42.102Z,99551.34
2023-02-24T23:53:09.199Z,99540.47
2023-02-24T23:55:35.923Z,99552.34
2023-02-24T23:58:03.281Z,99552.88
